createdAt,value
2018-12-31T00:01:30.845Z,18.53
2018-12-31T00:03:59.550Z,8.55
2018-12-31T00:06:28.489Z,14.07
2018-12-31T00:08:57.149Z,17.80
2018-12-31T00:11:26.188Z,4.83
2018-12-31T00:13:57.970Z,12.10
2018-12-31T00:16:26.886Z,8.70
2018-12-31T00:18:56.134Z,8.40
2018-12-31T00:21:25.110Z,15.80
2018-12-31T00:23:54.233Z,6.87
2018-12-31T00:26:23.357Z,21.83
2018-12-31T00:28:52.365Z,13.97
2018-12-31T00:31:21.271Z,3.37
2018-12-31T00:33:50.445Z,11.57
2018-12-31T00:36:19.406Z,7.27
2018-12-31T00:38:48.942Z,17.67
2018-12-31T00:41:18.347Z,10.20
2018-12-31T00:43:47.261Z,10.73
2018-12-31T00:46:16.259Z,25.40
2018-12-31T00:48:45.312Z,11.23
2018-12-31T00:51:13.981Z,6.60
2018-12-31T00:53:42.861Z,9.07
2018-12-31T00:56:11.669Z,18.07
2018-12-31T00:58:40.607Z,5.50
2018-12-31T01:01:09.318Z,8.70
2018-12-31T01:03:37.975Z,15.73
2018-12-31T01:06:06.727Z,15.23
2018-12-31T01:08:35.672Z,11.73
2018-12-31T01:11:04.341Z,9.23
2018-12-31T01:13:32.999Z,11.37
2018-12-31T01:16:01.650Z,7.50
2018-12-31T01:18:30.663Z,12.20
2018-12-31T01:20:59.317Z,14.43
2018-12-31T01:23:28.243Z,10.30
2018-12-31T01:25:56.965Z,12.83
2018-12-31T01:28:25.866Z,13.08
2018-12-31T01:30:54.558Z,7.53
2018-12-31T01:33:23.346Z,9.70
2018-12-31T01:35:52.058Z,12.10
2018-12-31T01:38:20.982Z,9.93
2018-12-31T01:40:49.797Z,10.33
2018-12-31T01:43:18.673Z,15.73
2018-12-31T01:45:47.580Z,14.70
2018-12-31T01:48:16.305Z,17.25
2018-12-31T01:50:45.259Z,5.63
2018-12-31T01:53:14.195Z,11.93
2018-12-31T01:55:43.031Z,9.67
2018-12-31T01:58:11.715Z,10.57
2018-12-31T02:00:40.754Z,9.37
2018-12-31T02:03:09.727Z,16.30
2018-12-31T02:05:39.811Z,6.60
2018-12-31T02:08:08.558Z,11.00
2018-12-31T02:10:37.600Z,13.77
2018-12-31T02:13:06.350Z,7.93
2018-12-31T02:15:35.652Z,10.87
2018-12-31T02:18:04.339Z,9.23
2018-12-31T02:20:33.251Z,18.30
2018-12-31T02:23:02.197Z,10.17
2018-12-31T02:25:31.289Z,12.23
2018-12-31T02:27:59.953Z,9.47
2018-12-31T02:30:28.705Z,8.40
2018-12-31T02:32:58.545Z,13.90
2018-12-31T02:35:27.208Z,12.30
2018-12-31T02:37:55.850Z,12.37
2018-12-31T02:40:24.534Z,11.33
2018-12-31T02:42:53.497Z,10.53
2018-12-31T02:45:22.182Z,8.90
2018-12-31T02:47:50.910Z,19.23
2018-12-31T02:50:19.806Z,10.63
2018-12-31T02:52:48.711Z,12.80
2018-12-31T02:55:17.552Z,11.20
2018-12-31T02:57:46.447Z,14.70
2018-12-31T03:00:15.350Z,22.70
2018-12-31T03:02:44.330Z,12.80
2018-12-31T03:05:12.981Z,15.10
2018-12-31T03:07:41.640Z,14.57
2018-12-31T03:10:10.357Z,4.33
2018-12-31T03:12:39.006Z,13.60
2018-12-31T03:15:07.667Z,9.07
2018-12-31T03:17:36.719Z,20.53
2018-12-31T03:20:05.695Z,22.03
2018-12-31T03:22:34.908Z,10.00
2018-12-31T03:25:03.877Z,16.07
2018-12-31T03:27:32.942Z,15.40
2018-12-31T03:30:01.855Z,12.37
2018-12-31T03:32:31.080Z,13.70
2018-12-31T03:34:59.946Z,14.37
2018-12-31T03:37:28.837Z,8.87
2018-12-31T03:39:58.111Z,23.73
2018-12-31T03:42:26.765Z,16.87
2018-12-31T03:44:55.658Z,11.10
2018-12-31T03:47:24.437Z,19.00
2018-12-31T03:49:53.405Z,17.97
2018-12-31T03:52:22.081Z,20.30
2018-12-31T03:54:50.943Z,10.97
2018-12-31T03:57:19.609Z,9.37
2018-12-31T03:59:48.375Z,17.93
2018-12-31T04:02:17.057Z,10.33
2018-12-31T04:04:45.746Z,24.97
2018-12-31T04:07:14.683Z,19.20
2018-12-31T04:09:43.723Z,17.17
2018-12-31T04:12:12.695Z,13.40
2018-12-31T04:14:41.390Z,18.07
2018-12-31T04:17:10.151Z,10.70
2018-12-31T04:19:39.123Z,13.37
2018-12-31T04:22:07.787Z,9.50
2018-12-31T04:24:36.574Z,25.90
2018-12-31T04:27:05.259Z,13.30
2018-12-31T04:29:33.979Z,12.90
2018-12-31T04:32:03.026Z,11.50
2018-12-31T04:34:31.920Z,20.20
2018-12-31T04:37:01.022Z,28.62
2018-12-31T04:39:29.710Z,20.17
2018-12-31T04:41:58.370Z,20.60
2018-12-31T04:44:27.307Z,17.77
2018-12-31T04:46:57.231Z,12.93
2018-12-31T04:49:26.124Z,15.30
2018-12-31T04:51:55.009Z,11.47
2018-12-31T04:54:23.719Z,13.53
2018-12-31T04:56:53.170Z,26.73
2018-12-31T04:59:21.832Z,24.33
2018-12-31T05:01:50.859Z,21.60
2018-12-31T05:04:22.012Z,28.80
2018-12-31T05:06:50.904Z,15.27
2018-12-31T05:09:19.908Z,9.47
2018-12-31T05:11:49.922Z,17.50
2018-12-31T05:14:18.956Z,18.57
2018-12-31T05:16:47.770Z,12.07
2018-12-31T05:19:16.499Z,22.80
2018-12-31T05:21:45.238Z,19.87
2018-12-31T05:24:14.206Z,19.73
2018-12-31T05:26:42.917Z,21.23
2018-12-31T05:29:11.636Z,18.83
2018-12-31T05:31:40.666Z,23.03
2018-12-31T05:34:09.332Z,24.50
2018-12-31T05:36:37.998Z,18.27
2018-12-31T05:39:07.766Z,23.83
2018-12-31T05:41:36.687Z,17.03
2018-12-31T05:44:05.385Z,11.80
2018-12-31T05:46:34.317Z,25.47
2018-12-31T05:49:03.242Z,12.17
2018-12-31T05:51:32.391Z,19.57
2018-12-31T05:54:01.576Z,14.43
2018-12-31T05:56:30.410Z,19.03
2018-12-31T05:59:00.283Z,17.77
2018-12-31T06:01:29.262Z,19.27
2018-12-31T06:03:58.038Z,19.40
2018-12-31T06:06:26.914Z,16.20
2018-12-31T06:08:55.747Z,18.30
2018-12-31T06:11:24.659Z,15.63
2018-12-31T06:13:53.348Z,17.17
2018-12-31T06:16:22.307Z,16.87
2018-12-31T06:18:50.978Z,13.87
2018-12-31T06:21:19.687Z,16.10
2018-12-31T06:23:48.685Z,21.43
2018-12-31T06:26:17.742Z,14.87
2018-12-31T06:28:47.587Z,14.70
2018-12-31T06:31:16.427Z,16.00
2018-12-31T06:33:45.350Z,18.30
2018-12-31T06:36:14.020Z,16.77
2018-12-31T06:38:42.774Z,16.60
2018-12-31T06:41:11.755Z,17.50
2018-12-31T06:43:40.414Z,19.57
2018-12-31T06:46:09.385Z,17.37
2018-12-31T06:48:38.526Z,15.30
2018-12-31T06:51:07.215Z,22.60
2018-12-31T06:53:36.178Z,18.33
2018-12-31T06:56:05.462Z,20.53
2018-12-31T06:58:34.586Z,19.60
2018-12-31T07:01:03.747Z,20.00
2018-12-31T07:03:32.684Z,17.57
2018-12-31T07:06:01.386Z,26.53
2018-12-31T07:08:30.163Z,17.67
2018-12-31T07:10:59.147Z,22.87
2018-12-31T07:13:29.461Z,26.33
2018-12-31T07:15:58.434Z,15.20
2018-12-31T07:18:27.134Z,19.23
2018-12-31T07:20:55.902Z,28.53
2018-12-31T07:23:24.703Z,21.17
2018-12-31T07:25:53.870Z,14.10
2018-12-31T07:28:22.613Z,24.63
2018-12-31T07:30:51.547Z,21.97
2018-12-31T07:33:20.205Z,28.43
2018-12-31T07:35:52.035Z,24.50
2018-12-31T07:38:21.058Z,29.70
2018-12-31T07:40:49.896Z,18.77
2018-12-31T07:43:18.569Z,20.23
2018-12-31T07:45:48.056Z,20.57
2018-12-31T07:48:16.783Z,21.87
2018-12-31T07:50:46.927Z,22.63
2018-12-31T07:53:15.730Z,23.50
2018-12-31T07:55:44.403Z,15.70
2018-12-31T07:58:13.203Z,21.17
2018-12-31T08:00:42.002Z,28.80
2018-12-31T08:03:10.887Z,25.43
2018-12-31T08:05:39.842Z,17.67
2018-12-31T08:08:09.104Z,34.40
2018-12-31T08:10:39.716Z,28.47
2018-12-31T08:13:08.806Z,26.13
2018-12-31T08:15:39.909Z,28.77
2018-12-31T08:18:08.791Z,29.30
2018-12-31T08:20:38.238Z,21.73
2018-12-31T08:23:07.272Z,28.40
2018-12-31T08:25:38.475Z,25.53
2018-12-31T08:28:07.170Z,22.10
2018-12-31T08:30:36.849Z,31.57
2018-12-31T08:33:05.598Z,24.90
2018-12-31T08:35:34.344Z,29.10
2018-12-31T08:38:03.383Z,26.60
2018-12-31T08:40:32.099Z,15.13
2018-12-31T08:43:00.783Z,26.20
2018-12-31T08:45:29.871Z,27.50
2018-12-31T08:47:58.627Z,24.33
2018-12-31T08:50:27.584Z,24.50
2018-12-31T08:52:56.606Z,28.33
2018-12-31T08:55:25.318Z,25.10
2018-12-31T08:57:54.004Z,28.57
2018-12-31T09:00:25.697Z,26.77
2018-12-31T09:02:54.390Z,26.10
2018-12-31T09:05:23.235Z,16.87
2018-12-31T09:07:52.238Z,21.33
2018-12-31T09:10:21.142Z,19.37
2018-12-31T09:12:50.067Z,32.10
2018-12-31T09:15:18.790Z,22.97
2018-12-31T09:17:47.481Z,20.80
2018-12-31T09:20:16.402Z,24.23
2018-12-31T09:22:45.098Z,22.07
2018-12-31T09:25:13.780Z,30.67
2018-12-31T09:27:43.723Z,19.83
2018-12-31T09:30:12.434Z,24.00
2018-12-31T09:32:41.623Z,31.63
2018-12-31T09:35:10.309Z,29.50
2018-12-31T09:37:39.408Z,17.02
2018-12-31T09:40:08.108Z,20.07
2018-12-31T09:42:36.907Z,17.43
2018-12-31T09:45:06.126Z,22.83
2018-12-31T09:47:34.800Z,22.63
2018-12-31T09:50:04.091Z,19.60
2018-12-31T09:52:32.897Z,29.40
2018-12-31T09:55:01.567Z,19.47
2018-12-31T09:57:30.258Z,16.10
2018-12-31T09:59:59.291Z,18.13
2018-12-31T10:02:28.239Z,23.13
2018-12-31T10:04:56.979Z,19.13
2018-12-31T10:07:27.017Z,12.83
2018-12-31T10:09:58.894Z,9.67
2018-12-31T10:12:27.587Z,15.47
2018-12-31T10:14:56.907Z,16.42
2018-12-31T10:17:25.846Z,20.93
2018-12-31T10:19:54.798Z,22.20
2018-12-31T10:22:23.876Z,13.20
2018-12-31T10:24:52.694Z,19.87
2018-12-31T10:27:21.526Z,14.80
2018-12-31T10:29:51.952Z,17.93
2018-12-31T10:32:20.993Z,21.20
2018-12-31T10:34:49.752Z,17.17
2018-12-31T10:37:18.520Z,12.67
2018-12-31T10:39:47.364Z,15.87
2018-12-31T10:42:16.138Z,13.63
2018-12-31T10:44:45.627Z,14.03
2018-12-31T10:47:14.856Z,9.97
2018-12-31T10:49:43.712Z,19.90
2018-12-31T10:52:12.602Z,12.20
2018-12-31T10:54:41.323Z,12.53
2018-12-31T10:57:10.058Z,13.07
2018-12-31T10:59:38.866Z,13.93
2018-12-31T11:02:07.838Z,18.67
2018-12-31T11:04:36.751Z,11.47
2018-12-31T11:07:05.901Z,18.77
2018-12-31T11:09:37.625Z,30.77
2018-12-31T11:12:06.392Z,13.53
2018-12-31T11:14:35.154Z,15.10
2018-12-31T11:17:03.959Z,8.93
2018-12-31T11:19:33.525Z,17.83
2018-12-31T11:22:02.636Z,16.30
2018-12-31T11:24:31.319Z,11.70
2018-12-31T11:27:00.254Z,14.60
2018-12-31T11:29:28.947Z,16.27
2018-12-31T11:31:57.757Z,18.70
2018-12-31T11:34:29.122Z,18.03
2018-12-31T11:37:01.514Z,14.10
2018-12-31T11:39:30.486Z,12.30
2018-12-31T11:41:59.292Z,17.87
2018-12-31T11:44:28.286Z,11.77
2018-12-31T11:46:57.338Z,12.43
2018-12-31T11:49:26.038Z,10.77
2018-12-31T11:51:55.040Z,17.03
2018-12-31T11:54:23.721Z,21.63
2018-12-31T11:56:52.442Z,14.97
2018-12-31T11:59:21.163Z,12.27
2018-12-31T12:01:49.851Z,19.10
2018-12-31T12:04:18.548Z,15.27
2018-12-31T12:06:47.424Z,12.37
2018-12-31T12:09:18.550Z,12.23
2018-12-31T12:11:48.496Z,11.33
2018-12-31T12:14:17.423Z,18.37
2018-12-31T12:16:46.359Z,9.33
2018-12-31T12:19:15.159Z,22.10
2018-12-31T12:21:43.927Z,12.13
2018-12-31T12:24:12.647Z,17.00
2018-12-31T12:26:41.603Z,16.07
2018-12-31T12:29:10.587Z,9.60
2018-12-31T12:31:39.525Z,17.07
2018-12-31T12:34:08.719Z,11.17
2018-12-31T12:36:37.624Z,10.77
2018-12-31T12:39:07.934Z,13.80
2018-12-31T12:41:36.598Z,13.53
2018-12-31T12:44:05.771Z,10.30
2018-12-31T12:46:34.770Z,13.77
2018-12-31T12:49:03.474Z,19.97
2018-12-31T12:51:32.490Z,8.10
2018-12-31T12:54:01.393Z,12.67
2018-12-31T12:56:30.314Z,17.00
2018-12-31T12:58:59.157Z,11.53
2018-12-31T13:01:28.162Z,13.73
2018-12-31T13:03:57.592Z,9.20
2018-12-31T13:06:26.836Z,15.53
2018-12-31T13:08:55.571Z,13.57
2018-12-31T13:11:24.706Z,10.83
2018-12-31T13:13:54.127Z,18.37
2018-12-31T13:16:23.905Z,11.93
2018-12-31T13:18:53.135Z,6.47
2018-12-31T13:21:22.159Z,20.07
2018-12-31T13:23:50.906Z,9.73
2018-12-31T13:26:19.624Z,10.63
2018-12-31T13:28:48.441Z,8.53
2018-12-31T13:31:17.749Z,18.63
2018-12-31T13:33:46.454Z,10.50
2018-12-31T13:36:15.518Z,10.80
2018-12-31T13:38:44.236Z,10.23
2018-12-31T13:41:13.457Z,10.47
2018-12-31T13:43:42.738Z,9.07
2018-12-31T13:46:11.518Z,11.53
2018-12-31T13:48:40.210Z,13.07
2018-12-31T13:51:09.630Z,5.17
2018-12-31T13:53:38.623Z,4.47
2018-12-31T13:56:07.618Z,5.90
2018-12-31T13:58:36.392Z,10.97
2018-12-31T14:01:05.239Z,13.03
2018-12-31T14:03:34.344Z,8.77
2018-12-31T14:06:03.278Z,9.50
2018-12-31T14:08:32.565Z,4.73
2018-12-31T14:11:01.238Z,10.43
2018-12-31T14:13:30.351Z,4.60
2018-12-31T14:15:59.510Z,8.37
2018-12-31T14:18:28.458Z,9.70
2018-12-31T14:20:57.738Z,7.47
2018-12-31T14:23:26.422Z,9.50
2018-12-31T14:25:55.390Z,7.60
2018-12-31T14:28:24.182Z,13.73
2018-12-31T14:30:53.045Z,7.20
2018-12-31T14:33:22.082Z,12.57
2018-12-31T14:35:51.522Z,11.27
2018-12-31T14:38:20.355Z,15.63
2018-12-31T14:40:49.039Z,20.57
2018-12-31T14:43:18.087Z,16.73
2018-12-31T14:45:47.187Z,13.60
2018-12-31T14:48:15.852Z,13.17
2018-12-31T14:50:44.971Z,9.97
2018-12-31T14:53:13.629Z,12.27
2018-12-31T14:55:42.320Z,16.17
2018-12-31T14:58:12.975Z,20.10
2018-12-31T15:00:42.088Z,19.53
2018-12-31T15:03:10.781Z,16.83
2018-12-31T15:05:39.607Z,20.37
2018-12-31T15:08:08.836Z,14.77
2018-12-31T15:10:40.268Z,17.80
2018-12-31T15:13:08.852Z,19.13
2018-12-31T15:15:38.014Z,16.77
2018-12-31T15:18:07.723Z,15.90
2018-12-31T15:20:36.546Z,16.30
2018-12-31T15:23:05.232Z,22.67
2018-12-31T15:25:34.070Z,18.17
2018-12-31T15:28:03.332Z,20.97
2018-12-31T15:30:32.725Z,23.77
2018-12-31T15:33:01.675Z,22.03
2018-12-31T15:35:31.010Z,28.83
2018-12-31T15:38:00.060Z,21.30
2018-12-31T15:40:29.170Z,23.13
2018-12-31T15:42:58.390Z,22.07
2018-12-31T15:45:27.187Z,22.10
2018-12-31T15:47:56.062Z,23.90
2018-12-31T15:50:25.030Z,25.97
2018-12-31T15:52:54.056Z,29.97
2018-12-31T15:55:22.835Z,24.80
2018-12-31T15:57:51.958Z,31.77
2018-12-31T16:00:20.902Z,22.60
2018-12-31T16:02:49.590Z,29.37
2018-12-31T16:05:18.690Z,31.77
2018-12-31T16:07:47.369Z,29.80
2018-12-31T16:10:16.278Z,30.83
2018-12-31T16:12:45.496Z,29.40
2018-12-31T16:15:14.558Z,23.03
2018-12-31T16:17:43.472Z,63.97
2018-12-31T16:20:12.659Z,30.07
2018-12-31T16:22:41.442Z,33.40
2018-12-31T16:25:11.284Z,27.30
2018-12-31T16:27:40.421Z,18.40
2018-12-31T16:30:09.427Z,22.70
2018-12-31T16:32:38.410Z,29.12
2018-12-31T16:35:07.570Z,34.20
2018-12-31T16:37:37.972Z,27.40
2018-12-31T16:40:07.279Z,24.87
2018-12-31T16:42:36.266Z,27.90
2018-12-31T16:45:05.860Z,24.03
2018-12-31T16:47:34.534Z,31.70
2018-12-31T16:50:03.575Z,31.07
2018-12-31T16:52:32.462Z,27.37
2018-12-31T16:55:01.128Z,30.30
2018-12-31T16:57:29.979Z,25.47
2018-12-31T16:59:58.646Z,19.67
2018-12-31T17:02:27.683Z,20.17
2018-12-31T17:04:56.366Z,26.10
2018-12-31T17:07:28.500Z,25.73
2018-12-31T17:09:55.710Z,25.03
2018-12-31T17:12:24.513Z,27.40
2018-12-31T17:14:53.552Z,46.53
2018-12-31T17:17:22.285Z,27.40
2018-12-31T17:19:51.100Z,37.53
2018-12-31T17:22:20.013Z,33.73
2018-12-31T17:24:48.695Z,48.20
2018-12-31T17:27:18.107Z,38.27
2018-12-31T17:29:47.563Z,35.53
2018-12-31T17:32:16.286Z,41.07
2018-12-31T17:34:45.225Z,39.03
2018-12-31T17:37:14.214Z,31.00
2018-12-31T17:39:42.906Z,32.23
2018-12-31T17:42:11.898Z,40.20
2018-12-31T17:44:40.579Z,53.43
2018-12-31T17:47:09.506Z,50.70
2018-12-31T17:49:38.535Z,45.00
2018-12-31T17:52:07.855Z,42.43
2018-12-31T17:54:37.078Z,44.00
2018-12-31T17:57:05.995Z,42.93
2018-12-31T17:59:35.011Z,47.20
2018-12-31T18:02:03.869Z,49.73
2018-12-31T18:04:33.281Z,60.40
2018-12-31T18:07:01.990Z,53.27
2018-12-31T18:09:30.684Z,43.90
2018-12-31T18:11:59.407Z,45.20
2018-12-31T18:14:28.143Z,45.63
2018-12-31T18:16:56.854Z,42.27
2018-12-31T18:19:25.769Z,58.33
2018-12-31T18:21:54.656Z,41.47
2018-12-31T18:24:23.791Z,43.47
2018-12-31T18:26:52.771Z,41.17
2018-12-31T18:29:21.526Z,43.30
2018-12-31T18:31:50.512Z,48.47
2018-12-31T18:34:19.531Z,45.53
2018-12-31T18:36:48.239Z,34.67
2018-12-31T18:39:16.991Z,46.53
2018-12-31T18:41:45.792Z,48.53
2018-12-31T18:44:14.834Z,36.17
2018-12-31T18:46:43.501Z,41.40
2018-12-31T18:49:12.537Z,37.23
2018-12-31T18:51:41.448Z,40.27
2018-12-31T18:54:10.372Z,34.73
2018-12-31T18:56:39.339Z,34.03
2018-12-31T18:59:08.008Z,39.73
2018-12-31T19:01:36.771Z,82.13
2018-12-31T19:04:05.542Z,35.30
2018-12-31T19:06:34.470Z,29.80
2018-12-31T19:09:04.882Z,33.47
2018-12-31T19:11:33.625Z,41.13
2018-12-31T19:14:03.917Z,37.13
2018-12-31T19:16:32.973Z,33.63
2018-12-31T19:19:01.698Z,44.70
2018-12-31T19:21:30.377Z,44.77
2018-12-31T19:23:59.057Z,37.47
2018-12-31T19:26:28.345Z,46.30
2018-12-31T19:28:57.158Z,41.23
2018-12-31T19:31:27.635Z,37.83
2018-12-31T19:33:56.450Z,33.63
2018-12-31T19:36:25.141Z,378.87
2018-12-31T19:38:54.110Z,303.33
2018-12-31T19:41:23.163Z,67.63
2018-12-31T19:43:52.111Z,214.67
2018-12-31T19:46:20.863Z,36.70
2018-12-31T19:48:50.021Z,49.07
2018-12-31T19:51:19.012Z,37.57
2018-12-31T19:53:47.678Z,75.43
2018-12-31T19:56:16.794Z,56.87
2018-12-31T19:58:45.571Z,49.97
2018-12-31T20:01:14.502Z,48.23
2018-12-31T20:03:43.556Z,35.40
2018-12-31T20:06:12.231Z,36.90
2018-12-31T20:08:41.145Z,33.67
2018-12-31T20:11:10.023Z,39.63
2018-12-31T20:13:38.993Z,46.13
2018-12-31T20:16:07.772Z,46.97
2018-12-31T20:18:36.670Z,56.07
2018-12-31T20:21:05.661Z,79.00
2018-12-31T20:23:34.573Z,62.30
2018-12-31T20:26:03.447Z,54.60
2018-12-31T20:28:33.390Z,57.90
2018-12-31T20:31:02.469Z,48.80
2018-12-31T20:33:31.652Z,55.77
2018-12-31T20:36:00.491Z,56.83
2018-12-31T20:38:29.283Z,51.13
2018-12-31T20:40:59.034Z,53.30
2018-12-31T20:43:27.892Z,50.30
2018-12-31T20:45:57.387Z,65.80
2018-12-31T20:48:26.311Z,47.87
2018-12-31T20:50:55.327Z,53.20
2018-12-31T20:53:24.111Z,58.47
2018-12-31T20:55:55.655Z,42.03
2018-12-31T20:58:24.439Z,47.70
2018-12-31T21:00:53.735Z,45.00
2018-12-31T21:03:22.834Z,42.33
2018-12-31T21:05:51.618Z,48.80
2018-12-31T21:08:20.368Z,53.57
2018-12-31T21:10:49.498Z,71.60
2018-12-31T21:13:18.692Z,61.90
2018-12-31T21:15:47.593Z,77.20
2018-12-31T21:18:16.607Z,60.97
2018-12-31T21:20:45.675Z,59.60
2018-12-31T21:23:14.424Z,65.87
2018-12-31T21:25:46.251Z,54.90
2018-12-31T21:28:14.950Z,80.37
2018-12-31T21:30:46.884Z,76.43
2018-12-31T21:33:15.694Z,52.83
2018-12-31T21:35:44.386Z,51.42
2018-12-31T21:38:13.074Z,52.23
2018-12-31T21:40:41.942Z,73.43
2018-12-31T21:43:10.636Z,57.67
2018-12-31T21:45:41.343Z,82.33
2018-12-31T21:48:10.156Z,49.10
2018-12-31T21:50:42.000Z,70.83
2018-12-31T21:53:10.928Z,57.03
2018-12-31T21:55:39.713Z,82.57
2018-12-31T21:58:08.729Z,78.33
2018-12-31T22:00:37.599Z,61.67
2018-12-31T22:03:06.362Z,58.27
2018-12-31T22:05:35.048Z,51.03
2018-12-31T22:08:03.829Z,69.90
2018-12-31T22:10:35.754Z,73.53
2018-12-31T22:13:04.687Z,42.23
2018-12-31T22:15:33.617Z,89.83
2018-12-31T22:18:02.326Z,49.87
2018-12-31T22:20:31.112Z,67.73
2018-12-31T22:23:00.428Z,61.80
2018-12-31T22:25:29.779Z,58.67
2018-12-31T22:27:58.877Z,62.23
2018-12-31T22:30:29.028Z,50.03
2018-12-31T22:32:58.176Z,76.67
2018-12-31T22:35:27.230Z,55.70
2018-12-31T22:37:56.182Z,48.47
2018-12-31T22:40:25.511Z,44.50
2018-12-31T22:42:54.234Z,55.90
2018-12-31T22:45:23.158Z,56.80
2018-12-31T22:47:51.879Z,36.97
2018-12-31T22:50:20.661Z,86.17
2018-12-31T22:52:49.845Z,59.53
2018-12-31T22:55:18.890Z,66.30
2018-12-31T22:57:47.598Z,162.73
2018-12-31T23:00:17.334Z,152.77
2018-12-31T23:02:46.444Z,243.67
2018-12-31T23:05:15.997Z,1012.27
2018-12-31T23:07:45.387Z,497.67
2018-12-31T23:10:14.213Z,985.23
2018-12-31T23:12:43.005Z,1164.63
2018-12-31T23:15:15.241Z,1496.83
2018-12-31T23:17:43.956Z,657.13
2018-12-31T23:20:12.921Z,815.40
2018-12-31T23:22:41.663Z,921.37
2018-12-31T23:25:10.703Z,516.20
2018-12-31T23:27:39.402Z,643.13
2018-12-31T23:30:09.170Z,534.03
2018-12-31T23:32:38.008Z,910.10
2018-12-31T23:35:07.622Z,446.13
2018-12-31T23:37:37.914Z,356.23
2018-12-31T23:40:08.102Z,481.17
2018-12-31T23:42:37.035Z,254.07
2018-12-31T23:45:07.125Z,454.10
2018-12-31T23:51:25.153Z,408.27
2018-12-31T23:53:53.939Z,415.23
2018-12-31T23:56:22.702Z,347.33
2018-12-31T23:58:51.777Z,260.07
